Bu Sidra — V7CH3 — position and weather

sailwx.info

Track history (hours):
 
Tides and Currents Weather Stations Pressure Air Temp Water Temp Dewpoint Dewpoint Depression Visibility Wind Speed Wind Dir Waves Ship Positions

Bu Sidra

Last reported at 2018-Feb-06 04:23 UTC. Time now 2018-Feb-18 22:23 UTC.
Position N 16°10' W 062°33'.
Warning: this ship's position is 12 days out of date.

Length 225 m; draft 11.9 m.

Type: Ship (hazmat cat A). MMSI: 538005258.

Date/timePositionNaut miles runAvg speedWind from/ knotsBaromVisibWave heightAir tempDewpointWater temp
2018-Feb-06 04:23N 16°10' W 062°33'1114.5
2018-Feb-06 03:38N 16°11' W 062°44'214.6
2018-Feb-06 03:30N 16°11' W 062°46'  
2018-Jan-31 09:54N 28°50' W 093°25'613.5
2018-Jan-31 09:27N 28°54' W 093°30'612.9
2018-Jan-31 09:00N 28°58' W 093°34'1013.3
2018-Jan-31 08:14N 29°08' W 093°40'313.3
2018-Jan-31 08:00N 29°10' W 093°40'510.6
2018-Jan-31 07:30N 29°16' W 093°39'4 9.0
2018-Jan-31 07:00N 29°20' W 093°40'3 6.6
2018-Jan-31 06:29N 29°23' W 093°40'4 7.0
2018-Jan-31 05:59N 29°27' W 093°40'611.7
2018-Jan-31 05:28N 29°32' W 093°44'612.6
2018-Jan-31 05:00N 29°36' W 093°48'611.5
2018-Jan-31 04:30N 29°42' W 093°50'4 8.6
2018-Jan-31 04:00N 29°45' W 093°53'4 7.6
2018-Jan-31 03:30N 29°47' W 093°57'4 7.3
2018-Jan-31 03:00N 29°51' W 093°57'2 4.8
2018-Jan-31 02:30N 29°53' W 093°55'3 6.9
2018-Jan-31 02:00N 29°55' W 093°53'3 6.7
2018-Jan-31 01:30N 29°59' W 093°52'3 6.3
2018-Jan-31 01:00N 29°59' W 093°55'4 4.0
2018-Jan-31 00:00N 30°01' W 093°60'0 0.0
2018-Jan-30 23:29N 30°01' W 093°60'0 0.0
2018-Jan-30 23:00N 30°01' W 093°60'0 0.0
2018-Jan-30 22:28N 30°01' W 093°60'0 0.0
2018-Jan-30 21:28N 30°01' W 093°60'0 0.0
2018-Jan-30 20:58N 30°01' W 093°60'0 0.0
2018-Jan-30 20:25N 30°01' W 093°60'0 0.0
2018-Jan-30 20:00N 30°01' W 093°60'0 0.0
2018-Jan-30 19:28N 30°01' W 093°60'0 0.0
2018-Jan-30 18:58N 30°01' W 093°60'0 0.0
2018-Jan-30 16:16N 30°01' W 093°60'0 0.0
2018-Jan-30 15:58N 30°01' W 093°60'0 0.0
2018-Jan-30 15:28N 30°01' W 093°60'0 0.0
2018-Jan-30 14:58N 30°01' W 093°60'0 0.0
2018-Jan-30 14:28N 30°01' W 093°60'0 0.0
2018-Jan-30 13:28N 30°01' W 093°60'0 0.0
2018-Jan-30 12:58N 30°01' W 093°60'0 0.0
2018-Jan-30 12:28N 30°01' W 093°60'0 0.0
2018-Jan-30 11:58N 30°01' W 093°60'0 0.0
2018-Jan-30 11:25N 30°01' W 093°60'0 0.0
2018-Jan-30 10:28N 30°01' W 093°60'0 0.0
2018-Jan-30 09:28N 30°01' W 093°60'0 0.0
2018-Jan-30 08:58N 30°01' W 093°60'0 0.0
2018-Jan-30 08:25N 30°01' W 093°60'0 0.0
2018-Jan-30 07:58N 30°01' W 093°60'0 0.0
2018-Jan-30 07:28N 30°01' W 093°60'0 0.0
2018-Jan-30 06:58N 30°01' W 093°60'0 0.0
2018-Jan-30 06:25N 30°01' W 093°60'0 0.0
2018-Jan-30 05:55N 30°01' W 093°60'0 0.0
2018-Jan-30 05:28N 30°01' W 093°60'0 0.0
2018-Jan-30 04:58N 30°01' W 093°60'0 0.0
2018-Jan-30 04:28N 30°01' W 093°60'0 0.0
2018-Jan-30 03:58N 30°01' W 093°60'0 0.0
2018-Jan-30 03:28N 30°01' W 093°60'0 0.0
2018-Jan-30 02:55N 30°01' W 093°60'0 0.0
2018-Jan-30 02:28N 30°01' W 093°60'0 0.0
2018-Jan-30 01:58N 30°01' W 093°60'0 0.0
2018-Jan-30 01:28N 30°01' W 093°60'0 0.0
2018-Jan-30 00:58N 30°01' W 093°60'0 0.0
2018-Jan-30 00:28N 30°01' W 093°60'0 0.0
2018-Jan-29 23:58N 30°01' W 093°60'0 0.0
2018-Jan-29 23:28N 30°01' W 093°60'0 0.0
2018-Jan-29 22:16N 30°01' W 093°60'0 0.0
2018-Jan-29 21:58N 30°01' W 093°60'0 0.0
2018-Jan-29 21:28N 30°01' W 093°60'0 0.0
2018-Jan-29 20:58N 30°01' W 093°60'0 0.0
2018-Jan-29 20:28N 30°01' W 093°60'0 0.0
2018-Jan-29 19:58N 30°01' W 093°60'0 0.0
2018-Jan-29 19:28N 30°01' W 093°60'0 0.0
2018-Jan-29 18:58N 30°01' W 093°60'0 0.0
2018-Jan-29 18:28N 30°01' W 093°60'0 0.0
2018-Jan-29 17:58N 30°01' W 093°60'0 0.0
2018-Jan-29 17:28N 30°01' W 093°60'0 0.0
2018-Jan-29 16:58N 30°01' W 093°60'0 0.0
2018-Jan-29 16:28N 30°01' W 093°60'0 0.0
2018-Jan-29 15:58N 30°01' W 093°60'0 0.0
2018-Jan-29 15:28N 30°01' W 093°60'0 0.0
2018-Jan-29 14:58N 30°01' W 093°60'0 0.0
2018-Jan-29 14:28N 30°01' W 093°60'0 0.0
2018-Jan-29 13:58N 30°01' W 093°60'0 0.0
2018-Jan-29 13:31N 30°01' W 093°60'0 0.1
2018-Jan-29 13:00N 30°01' W 093°60'0 0.9
2018-Jan-29 12:30N 30°01' W 093°59'0 0.0
2018-Jan-29 11:58N 30°01' W 093°59'0 0.0
2018-Jan-29 11:28N 30°01' W 093°59'0 0.0
2018-Jan-29 08:19N 30°01' W 093°59'0 0.0
2018-Jan-29 07:49N 30°01' W 093°59'0 0.0
2018-Jan-29 06:52N 30°01' W 093°59'0 0.0
2018-Jan-29 06:19N 30°01' W 093°59'0 0.0
2018-Jan-29 05:58N 30°01' W 093°59'0 0.0
2018-Jan-29 05:28N 30°01' W 093°59'0 0.0
2018-Jan-29 03:16N 30°01' W 093°59'  
Track history (hours):
 
Tides and Currents Weather Stations Pressure Air Temp Water Temp Dewpoint Dewpoint Depression Visibility Wind Speed Wind Dir Waves Ship Positions

Bu Sidra

Last reported at 2018-Feb-06 04:23 UTC. Time now 2018-Feb-18 22:23 UTC.
Position N 16°10' W 062°33'.
Warning: this ship's position is 12 days out of date.

Length 225 m; draft 11.9 m.

Type: Ship (hazmat cat A). MMSI: 538005258.

Date/timePositionNaut miles runAvg speedWind from/ knotsBaromVisibWave heightAir tempDewpointWater temp
2018-Feb-06 04:23N 16°10' W 062°33'1114.5
2018-Feb-06 03:38N 16°11' W 062°44'214.6
2018-Feb-06 03:30N 16°11' W 062°46'  
2018-Jan-31 09:54N 28°50' W 093°25'613.5
2018-Jan-31 09:27N 28°54' W 093°30'612.9
2018-Jan-31 09:00N 28°58' W 093°34'1013.3
2018-Jan-31 08:14N 29°08' W 093°40'313.3
2018-Jan-31 08:00N 29°10' W 093°40'510.6
2018-Jan-31 07:30N 29°16' W 093°39'4 9.0
2018-Jan-31 07:00N 29°20' W 093°40'3 6.6
2018-Jan-31 06:29N 29°23' W 093°40'4 7.0
2018-Jan-31 05:59N 29°27' W 093°40'611.7
2018-Jan-31 05:28N 29°32' W 093°44'612.6
2018-Jan-31 05:00N 29°36' W 093°48'611.5
2018-Jan-31 04:30N 29°42' W 093°50'4 8.6
2018-Jan-31 04:00N 29°45' W 093°53'4 7.6
2018-Jan-31 03:30N 29°47' W 093°57'4 7.3
2018-Jan-31 03:00N 29°51' W 093°57'2 4.8
2018-Jan-31 02:30N 29°53' W 093°55'3 6.9
2018-Jan-31 02:00N 29°55' W 093°53'3 6.7
2018-Jan-31 01:30N 29°59' W 093°52'3 6.3
2018-Jan-31 01:00N 29°59' W 093°55'4 4.0
2018-Jan-31 00:00N 30°01' W 093°60'0 0.0
2018-Jan-30 23:29N 30°01' W 093°60'0 0.0
2018-Jan-30 23:00N 30°01' W 093°60'0 0.0
2018-Jan-30 22:28N 30°01' W 093°60'0 0.0
2018-Jan-30 21:28N 30°01' W 093°60'0 0.0
2018-Jan-30 20:58N 30°01' W 093°60'0 0.0
2018-Jan-30 20:25N 30°01' W 093°60'0 0.0
2018-Jan-30 20:00N 30°01' W 093°60'0 0.0
2018-Jan-30 19:28N 30°01' W 093°60'0 0.0
2018-Jan-30 18:58N 30°01' W 093°60'0 0.0
2018-Jan-30 16:16N 30°01' W 093°60'0 0.0
2018-Jan-30 15:58N 30°01' W 093°60'0 0.0
2018-Jan-30 15:28N 30°01' W 093°60'0 0.0
2018-Jan-30 14:58N 30°01' W 093°60'0 0.0
2018-Jan-30 14:28N 30°01' W 093°60'0 0.0
2018-Jan-30 13:28N 30°01' W 093°60'0 0.0
2018-Jan-30 12:58N 30°01' W 093°60'0 0.0
2018-Jan-30 12:28N 30°01' W 093°60'0 0.0
2018-Jan-30 11:58N 30°01' W 093°60'0 0.0
2018-Jan-30 11:25N 30°01' W 093°60'0 0.0
2018-Jan-30 10:28N 30°01' W 093°60'0 0.0
2018-Jan-30 09:28N 30°01' W 093°60'0 0.0
2018-Jan-30 08:58N 30°01' W 093°60'0 0.0
2018-Jan-30 08:25N 30°01' W 093°60'0 0.0
2018-Jan-30 07:58N 30°01' W 093°60'0 0.0
2018-Jan-30 07:28N 30°01' W 093°60'0 0.0
2018-Jan-30 06:58N 30°01' W 093°60'0 0.0
2018-Jan-30 06:25N 30°01' W 093°60'0 0.0
2018-Jan-30 05:55N 30°01' W 093°60'0 0.0
2018-Jan-30 05:28N 30°01' W 093°60'0 0.0
2018-Jan-30 04:58N 30°01' W 093°60'0 0.0
2018-Jan-30 04:28N 30°01' W 093°60'0 0.0
2018-Jan-30 03:58N 30°01' W 093°60'0 0.0
2018-Jan-30 03:28N 30°01' W 093°60'0 0.0
2018-Jan-30 02:55N 30°01' W 093°60'0 0.0
2018-Jan-30 02:28N 30°01' W 093°60'0 0.0
2018-Jan-30 01:58N 30°01' W 093°60'0 0.0
2018-Jan-30 01:28N 30°01' W 093°60'0 0.0
2018-Jan-30 00:58N 30°01' W 093°60'0 0.0
2018-Jan-30 00:28N 30°01' W 093°60'0 0.0
2018-Jan-29 23:58N 30°01' W 093°60'0 0.0
2018-Jan-29 23:28N 30°01' W 093°60'0 0.0
2018-Jan-29 22:16N 30°01' W 093°60'0 0.0
2018-Jan-29 21:58N 30°01' W 093°60'0 0.0
2018-Jan-29 21:28N 30°01' W 093°60'0 0.0
2018-Jan-29 20:58N 30°01' W 093°60'0 0.0
2018-Jan-29 20:28N 30°01' W 093°60'0 0.0
2018-Jan-29 19:58N 30°01' W 093°60'0 0.0
2018-Jan-29 19:28N 30°01' W 093°60'0 0.0
2018-Jan-29 18:58N 30°01' W 093°60'0 0.0
2018-Jan-29 18:28N 30°01' W 093°60'0 0.0
2018-Jan-29 17:58N 30°01' W 093°60'0 0.0
2018-Jan-29 17:28N 30°01' W 093°60'0 0.0
2018-Jan-29 16:58N 30°01' W 093°60'0 0.0
2018-Jan-29 16:28N 30°01' W 093°60'0 0.0
2018-Jan-29 15:58N 30°01' W 093°60'0 0.0
2018-Jan-29 15:28N 30°01' W 093°60'0 0.0
2018-Jan-29 14:58N 30°01' W 093°60'0 0.0
2018-Jan-29 14:28N 30°01' W 093°60'0 0.0
2018-Jan-29 13:58N 30°01' W 093°60'0 0.0
2018-Jan-29 13:31N 30°01' W 093°60'0 0.1
2018-Jan-29 13:00N 30°01' W 093°60'0 0.9
2018-Jan-29 12:30N 30°01' W 093°59'0 0.0
2018-Jan-29 11:58N 30°01' W 093°59'0 0.0
2018-Jan-29 11:28N 30°01' W 093°59'0 0.0
2018-Jan-29 08:19N 30°01' W 093°59'0 0.0
2018-Jan-29 07:49N 30°01' W 093°59'0 0.0
2018-Jan-29 06:52N 30°01' W 093°59'0 0.0
2018-Jan-29 06:19N 30°01' W 093°59'0 0.0
2018-Jan-29 05:58N 30°01' W 093°59'0 0.0
2018-Jan-29 05:28N 30°01' W 093°59'0 0.0
2018-Jan-29 03:16N 30°01' W 093°59'  

Dump ship's entire track history